CFG8ZX EDDL-LEPA
Flight info
| Callsign | CFG8ZX |
|---|---|
| Flight time | N/A |
| Altitude | 35000 |
| Route | MODRU7Z MODRU Z283 RITAX UT27 ROUSY DCT GTQ DCT POGOL DCT LASAT DCT MOROK DCT GILIR DCT GEVEA DCT INCUS DCT BALSI DCT RETNO DCT TUPOX DCT MTG DCT DIVKO DCT VATIR N852 VERSO L129 LUNIK |
| Aircraft | A321/M-SDE3FGHIRWY/LB1 |
Departure
| Time | 2026-05-07 16:06 |
|---|---|
| Airport | Düsseldorf Airport (EDDL) |
Arrival
| Time | N/A |
|---|---|
| Airport | Palma de Mallorca Airport (LEPA) |
| Time | Latitude | Longitude | Altitude | Speed | Heading |
|---|---|---|---|---|---|
| 2026-05-07 15:22 | 51.27942 | 6.76167 | 129 ft | 0 kts | 91° |
| 2026-05-07 15:52 | 51.27942 | 6.76164 | 128 ft | 2 kts | 91° |
| 2026-05-07 15:53 | 51.27943 | 6.76123 | 127 ft | 4 kts | 91° |
| 2026-05-07 15:53 | 51.27942 | 6.76089 | 124 ft | 4 kts | 71° |
| 2026-05-07 15:53 | 51.27928 | 6.76057 | 124 ft | 4 kts | 27° |
| 2026-05-07 15:53 | 51.27905 | 6.76048 | 125 ft | 4 kts | 1° |
| 2026-05-07 15:54 | 51.27896 | 6.76047 | 126 ft | 0 kts | 1° |
| 2026-05-07 15:57 | 51.27900 | 6.76047 | 125 ft | 2 kts | 1° |
| 2026-05-07 15:57 | 51.27930 | 6.76049 | 123 ft | 8 kts | 1° |
| 2026-05-07 15:58 | 51.28010 | 6.76047 | 126 ft | 14 kts | 1° |
| 2026-05-07 15:58 | 51.28060 | 6.76048 | 127 ft | 3 kts | 357° |
| 2026-05-07 15:58 | 51.28061 | 6.76047 | 127 ft | 0 kts | 357° |
| 2026-05-07 15:58 | 51.28093 | 6.76027 | 126 ft | 9 kts | 319° |
| 2026-05-07 15:59 | 51.28091 | 6.75947 | 128 ft | 7 kts | 238° |
| 2026-05-07 15:59 | 51.28061 | 6.75878 | 127 ft | 8 kts | 234° |
| 2026-05-07 15:59 | 51.28029 | 6.75809 | 127 ft | 8 kts | 233° |
| 2026-05-07 15:59 | 51.27993 | 6.75735 | 128 ft | 10 kts | 233° |
| 2026-05-07 16:00 | 51.27949 | 6.75642 | 127 ft | 12 kts | 232° |
| 2026-05-07 16:00 | 51.27896 | 6.75530 | 127 ft | 14 kts | 233° |
| 2026-05-07 16:00 | 51.27842 | 6.75408 | 122 ft | 12 kts | 249° |
| 2026-05-07 16:00 | 51.27851 | 6.75350 | 121 ft | 3 kts | 308° |
| 2026-05-07 16:01 | 51.27879 | 6.75318 | 123 ft | 7 kts | 334° |
| 2026-05-07 16:01 | 51.27885 | 6.75314 | 122 ft | 0 kts | 334° |
| 2026-05-07 16:04 | 51.27892 | 6.75308 | 125 ft | 5 kts | 334° |
| 2026-05-07 16:04 | 51.27971 | 6.75271 | 124 ft | 18 kts | 8° |
| 2026-05-07 16:04 | 51.28051 | 6.75388 | 121 ft | 5 kts | 53° |
| 2026-05-07 16:05 | 51.28085 | 6.75459 | 126 ft | 22 kts | 52° |
| 2026-05-07 16:05 | 51.28340 | 6.75994 | 129 ft | 95 kts | 53° |
| 2026-05-07 16:05 | 51.28868 | 6.77100 | 126 ft | 149 kts | 53° |
| 2026-05-07 16:05 | 51.29542 | 6.78537 | 436 ft | 165 kts | 52° |
| 2026-05-07 16:06 | 51.30229 | 6.80028 | 1072 ft | 167 kts | 50° |
| 2026-05-07 16:06 | 51.30946 | 6.81514 | 1645 ft | 170 kts | 50° |
| 2026-05-07 16:06 | 51.31681 | 6.83016 | 2098 ft | 177 kts | 51° |
| 2026-05-07 16:06 | 51.32471 | 6.84669 | 2314 ft | 199 kts | 51° |
| 2026-05-07 16:07 | 51.33358 | 6.86542 | 2475 ft | 223 kts | 52° |
| 2026-05-07 16:07 | 51.34401 | 6.88556 | 2810 ft | 246 kts | 42° |
| 2026-05-07 16:07 | 51.35819 | 6.90168 | 3556 ft | 253 kts | 26° |
| 2026-05-07 16:07 | 51.37491 | 6.91095 | 4433 ft | 257 kts | 10° |
| 2026-05-07 16:08 | 51.39269 | 6.91586 | 5308 ft | 261 kts | 9° |
| 2026-05-07 16:08 | 51.41069 | 6.92067 | 6181 ft | 264 kts | 9° |
| 2026-05-07 16:08 | 51.42899 | 6.92552 | 7017 ft | 268 kts | 8° |
| 2026-05-07 16:08 | 51.44760 | 6.93042 | 7779 ft | 274 kts | 8° |
| 2026-05-07 16:09 | 51.46670 | 6.93415 | 8533 ft | 279 kts | 357° |
| 2026-05-07 16:09 | 51.48549 | 6.92767 | 9268 ft | 282 kts | 334° |
| 2026-05-07 16:09 | 51.50164 | 6.90941 | 10016 ft | 284 kts | 311° |
| 2026-05-07 16:09 | 51.51225 | 6.88248 | 10504 ft | 295 kts | 291° |
| 2026-05-07 16:10 | 51.52006 | 6.85107 | 10703 ft | 318 kts | 290° |
| 2026-05-07 16:10 | 51.52817 | 6.81652 | 10857 ft | 342 kts | 289° |
| 2026-05-07 16:10 | 51.53668 | 6.77969 | 11054 ft | 361 kts | 289° |
| 2026-05-07 16:10 | 51.54554 | 6.74146 | 11608 ft | 368 kts | 289° |
| 2026-05-07 16:11 | 51.55178 | 6.70156 | 12218 ft | 373 kts | 276° |
| 2026-05-07 16:11 | 51.55172 | 6.65979 | 12885 ft | 376 kts | 262° |
| 2026-05-07 16:11 | 51.54518 | 6.61912 | 13558 ft | 379 kts | 248° |
| 2026-05-07 16:11 | 51.53346 | 6.58093 | 14177 ft | 382 kts | 243° |
| 2026-05-07 16:12 | 51.52120 | 6.54311 | 14768 ft | 385 kts | 243° |
| 2026-05-07 16:12 | 51.50873 | 6.50467 | 15363 ft | 388 kts | 243° |
| 2026-05-07 16:12 | 51.49625 | 6.46616 | 15943 ft | 391 kts | 243° |
| 2026-05-07 16:12 | 51.48363 | 6.42717 | 16507 ft | 394 kts | 242° |
| 2026-05-07 16:13 | 51.46880 | 6.39002 | 17067 ft | 398 kts | 232° |
| 2026-05-07 16:13 | 51.44948 | 6.35789 | 17611 ft | 402 kts | 221° |
| 2026-05-07 16:13 | 51.42641 | 6.33230 | 18179 ft | 406 kts | 210° |
| 2026-05-07 16:13 | 51.40038 | 6.31400 | 18659 ft | 410 kts | 201° |
| 2026-05-07 16:14 | 51.37348 | 6.29826 | 19151 ft | 413 kts | 201° |
| 2026-05-07 16:14 | 51.34647 | 6.28235 | 19645 ft | 415 kts | 201° |
| 2026-05-07 16:14 | 51.31929 | 6.26628 | 20121 ft | 418 kts | 201° |
| 2026-05-07 16:14 | 51.29194 | 6.25016 | 20601 ft | 420 kts | 201° |
| 2026-05-07 16:15 | 51.26441 | 6.23399 | 21079 ft | 423 kts | 201° |
| 2026-05-07 16:15 | 51.23669 | 6.21777 | 21548 ft | 426 kts | 201° |
| 2026-05-07 16:15 | 51.20876 | 6.20145 | 22015 ft | 429 kts | 201° |
| 2026-05-07 16:15 | 51.18069 | 6.18502 | 22481 ft | 431 kts | 201° |
| 2026-05-07 16:16 | 51.15245 | 6.16853 | 22938 ft | 434 kts | 201° |
| 2026-05-07 16:16 | 51.12400 | 6.15191 | 23396 ft | 436 kts | 201° |
| 2026-05-07 16:16 | 51.09539 | 6.13526 | 23801 ft | 439 kts | 201° |
| 2026-05-07 16:16 | 51.06660 | 6.11858 | 24175 ft | 442 kts | 201° |
| 2026-05-07 16:17 | 51.03766 | 6.10180 | 24545 ft | 444 kts | 201° |
| 2026-05-07 16:17 | 51.00953 | 6.08160 | 24894 ft | 445 kts | 210° |
| 2026-05-07 16:17 | 50.98345 | 6.05615 | 25240 ft | 446 kts | 213° |
| 2026-05-07 16:17 | 50.95704 | 6.02974 | 25597 ft | 448 kts | 213° |
| 2026-05-07 16:18 | 50.93052 | 6.00394 | 25951 ft | 451 kts | 211° |
| 2026-05-07 16:18 | 50.90311 | 5.97937 | 26316 ft | 453 kts | 210° |
| 2026-05-07 16:18 | 50.87497 | 5.95576 | 26672 ft | 455 kts | 208° |
| 2026-05-07 16:18 | 50.84691 | 5.93296 | 27010 ft | 457 kts | 208° |
| 2026-05-07 16:19 | 50.81864 | 5.91009 | 27461 ft | 456 kts | 208° |
| 2026-05-07 16:19 | 50.79057 | 5.88690 | 27941 ft | 454 kts | 209° |
| 2026-05-07 16:19 | 50.76278 | 5.86336 | 28412 ft | 453 kts | 210° |
| 2026-05-07 16:19 | 50.73520 | 5.83952 | 28879 ft | 452 kts | 210° |
| 2026-05-07 16:20 | 50.70772 | 5.81553 | 29331 ft | 450 kts | 210° |
| 2026-05-07 16:20 | 50.68031 | 5.79161 | 29788 ft | 450 kts | 210° |
| 2026-05-07 16:20 | 50.65294 | 5.76784 | 30218 ft | 449 kts | 210° |
| 2026-05-07 16:20 | 50.62530 | 5.74531 | 30601 ft | 449 kts | 205° |
| 2026-05-07 16:21 | 50.59574 | 5.72925 | 30976 ft | 450 kts | 195° |
| 2026-05-07 16:21 | 50.56483 | 5.72099 | 31354 ft | 451 kts | 186° |
| 2026-05-07 16:21 | 50.53342 | 5.72062 | 31730 ft | 453 kts | 177° |
| 2026-05-07 16:21 | 50.50207 | 5.72631 | 32097 ft | 454 kts | 175° |
| 2026-05-07 16:22 | 50.47115 | 5.73234 | 32470 ft | 453 kts | 175° |
| 2026-05-07 16:22 | 50.43988 | 5.73837 | 32846 ft | 453 kts | 175° |
| 2026-05-07 16:22 | 50.40823 | 5.74445 | 33228 ft | 452 kts | 175° |
| 2026-05-07 16:22 | 50.37704 | 5.75040 | 33611 ft | 451 kts | 175° |
| 2026-05-07 16:23 | 50.34621 | 5.75622 | 33987 ft | 451 kts | 175° |
| 2026-05-07 16:23 | 50.31500 | 5.76206 | 34311 ft | 450 kts | 175° |
| 2026-05-07 16:23 | 50.28389 | 5.76788 | 34610 ft | 450 kts | 175° |
| 2026-05-07 16:23 | 50.25281 | 5.77376 | 34881 ft | 450 kts | 175° |
| 2026-05-07 16:24 | 50.23210 | 5.77770 | 35003 ft | 451 kts | 175° |
| 2026-05-07 16:24 | 50.16964 | 5.78957 | 35061 ft | 450 kts | 175° |
| 2026-05-07 16:25 | 50.10786 | 5.80127 | 35062 ft | 449 kts | 175° |
| 2026-05-07 16:25 | 50.04664 | 5.82291 | 35050 ft | 453 kts | 164° |
| 2026-05-07 16:26 | 49.98708 | 5.85385 | 35061 ft | 454 kts | 164° |
| 2026-05-07 16:26 | 49.92716 | 5.88486 | 35059 ft | 454 kts | 164° |
| 2026-05-07 16:27 | 49.86706 | 5.91580 | 35049 ft | 454 kts | 164° |
| 2026-05-07 16:27 | 49.80715 | 5.94652 | 35036 ft | 454 kts | 164° |
| 2026-05-07 16:28 | 49.74746 | 5.97707 | 35040 ft | 454 kts | 164° |
| 2026-05-07 16:28 | 49.68742 | 6.00777 | 35043 ft | 454 kts | 164° |
| 2026-05-07 16:29 | 49.62741 | 6.03837 | 35045 ft | 454 kts | 164° |
| 2026-05-07 16:29 | 49.56722 | 6.06896 | 35034 ft | 454 kts | 164° |
| 2026-05-07 16:30 | 49.50713 | 6.09961 | 35037 ft | 455 kts | 162° |
| 2026-05-07 16:30 | 49.45118 | 6.14620 | 35039 ft | 461 kts | 144° |
| 2026-05-07 16:31 | 49.40143 | 6.20823 | 35041 ft | 461 kts | 143° |
| 2026-05-07 16:31 | 49.35143 | 6.27015 | 35031 ft | 462 kts | 143° |
| 2026-05-07 16:32 | 49.30156 | 6.33139 | 35029 ft | 462 kts | 143° |